sensor_id;sensor_type;location;lat;lon;timestamp;P1;durP1;ratioP1;P2;durP2;ratioP2
15130;SDS011;7666;50.920;4.628;2022-08-20T00:02:13;7.00;;;5.80;;
15130;SDS011;7666;50.920;4.628;2022-08-20T00:04:59;7.00;;;6.27;;
15130;SDS011;7666;50.920;4.628;2022-08-20T00:07:45;9.50;;;6.00;;
15130;SDS011;7666;50.920;4.628;2022-08-20T00:10:32;9.10;;;6.77;;
15130;SDS011;7666;50.920;4.628;2022-08-20T00:13:34;9.60;;;6.20;;
15130;SDS011;7666;50.920;4.628;2022-08-20T00:16:23;8.63;;;6.03;;
15130;SDS011;7666;50.920;4.628;2022-08-20T00:19:11;7.67;;;5.57;;
15130;SDS011;7666;50.920;4.628;2022-08-20T00:21:57;10.80;;;6.10;;
15130;SDS011;7666;50.920;4.628;2022-08-20T00:24:43;7.90;;;5.60;;
15130;SDS011;7666;50.920;4.628;2022-08-20T00:27:29;5.93;;;5.17;;
15130;SDS011;7666;50.920;4.628;2022-08-20T00:30:15;9.20;;;6.60;;
15130;SDS011;7666;50.920;4.628;2022-08-20T00:33:04;7.60;;;5.57;;
15130;SDS011;7666;50.920;4.628;2022-08-20T00:35:53;11.73;;;6.73;;
15130;SDS011;7666;50.920;4.628;2022-08-20T00:38:50;8.00;;;6.40;;
15130;SDS011;7666;50.920;4.628;2022-08-20T00:41:36;8.03;;;6.50;;
15130;SDS011;7666;50.920;4.628;2022-08-20T00:44:22;7.40;;;6.20;;
15130;SDS011;7666;50.920;4.628;2022-08-20T00:47:08;14.37;;;6.70;;
15130;SDS011;7666;50.920;4.628;2022-08-20T00:49:54;7.47;;;6.27;;
15130;SDS011;7666;50.920;4.628;2022-08-20T00:52:40;10.27;;;6.17;;
15130;SDS011;7666;50.920;4.628;2022-08-20T00:55:29;7.70;;;6.13;;
15130;SDS011;7666;50.920;4.628;2022-08-20T00:58:15;8.23;;;6.20;;
15130;SDS011;7666;50.920;4.628;2022-08-20T01:01:03;7.53;;;5.60;;
15130;SDS011;7666;50.920;4.628;2022-08-20T01:03:50;9.90;;;5.60;;
15130;SDS011;7666;50.920;4.628;2022-08-20T01:06:41;8.87;;;6.03;;
15130;SDS011;7666;50.920;4.628;2022-08-20T01:09:28;6.73;;;5.23;;
15130;SDS011;7666;50.920;4.628;2022-08-20T01:12:14;7.03;;;5.00;;
15130;SDS011;7666;50.920;4.628;2022-08-20T01:15:01;8.13;;;5.50;;
15130;SDS011;7666;50.920;4.628;2022-08-20T01:17:51;10.80;;;5.30;;
15130;SDS011;7666;50.920;4.628;2022-08-20T01:20:47;9.27;;;5.37;;
15130;SDS011;7666;50.920;4.628;2022-08-20T01:26:35;10.23;;;5.20;;
15130;SDS011;7666;50.920;4.628;2022-08-20T01:29:24;8.40;;;5.00;;
15130;SDS011;7666;50.920;4.628;2022-08-20T01:32:15;7.93;;;4.80;;
15130;SDS011;7666;50.920;4.628;2022-08-20T01:35:01;9.90;;;4.77;;
15130;SDS011;7666;50.920;4.628;2022-08-20T01:37:46;8.87;;;4.57;;
15130;SDS011;7666;50.920;4.628;2022-08-20T01:43:56;8.77;;;4.17;;
15130;SDS011;7666;50.920;4.628;2022-08-20T01:46:46;8.20;;;4.50;;
15130;SDS011;7666;50.920;4.628;2022-08-20T01:49:34;8.33;;;4.33;;
15130;SDS011;7666;50.920;4.628;2022-08-20T01:52:25;8.90;;;4.30;;
15130;SDS011;7666;50.920;4.628;2022-08-20T01:55:32;8.70;;;3.90;;
15130;SDS011;7666;50.920;4.628;2022-08-20T01:58:18;10.67;;;4.40;;
15130;SDS011;7666;50.920;4.628;2022-08-20T02:01:04;9.97;;;4.23;;
15130;SDS011;7666;50.920;4.628;2022-08-20T02:03:50;6.07;;;3.80;;
15130;SDS011;7666;50.920;4.628;2022-08-20T02:06:40;9.13;;;4.10;;
15130;SDS011;7666;50.920;4.628;2022-08-20T02:09:29;8.93;;;4.03;;
15130;SDS011;7666;50.920;4.628;2022-08-20T02:12:18;8.17;;;3.90;;
15130;SDS011;7666;50.920;4.628;2022-08-20T02:15:05;8.13;;;3.80;;
15130;SDS011;7666;50.920;4.628;2022-08-20T02:17:54;7.63;;;3.40;;
15130;SDS011;7666;50.920;4.628;2022-08-20T02:20:42;11.27;;;4.10;;
15130;SDS011;7666;50.920;4.628;2022-08-20T02:23:29;12.33;;;4.37;;
15130;SDS011;7666;50.920;4.628;2022-08-20T02:26:15;10.80;;;3.67;;
15130;SDS011;7666;50.920;4.628;2022-08-20T02:29:04;11.33;;;4.13;;
15130;SDS011;7666;50.920;4.628;2022-08-20T02:31:52;9.83;;;4.77;;
15130;SDS011;7666;50.920;4.628;2022-08-20T02:34:39;10.73;;;4.17;;
15130;SDS011;7666;50.920;4.628;2022-08-20T02:37:25;9.50;;;4.47;;
15130;SDS011;7666;50.920;4.628;2022-08-20T02:40:15;14.77;;;4.70;;
15130;SDS011;7666;50.920;4.628;2022-08-20T02:43:03;10.37;;;3.97;;
15130;SDS011;7666;50.920;4.628;2022-08-20T02:45:49;9.73;;;3.63;;
15130;SDS011;7666;50.920;4.628;2022-08-20T02:48:35;11.47;;;4.10;;
15130;SDS011;7666;50.920;4.628;2022-08-20T02:51:21;11.23;;;3.30;;
15130;SDS011;7666;50.920;4.628;2022-08-20T02:54:08;14.10;;;4.20;;
15130;SDS011;7666;50.920;4.628;2022-08-20T02:56:54;11.97;;;4.07;;
15130;SDS011;7666;50.920;4.628;2022-08-20T02:59:41;11.83;;;4.10;;
15130;SDS011;7666;50.920;4.628;2022-08-20T03:02:28;12.50;;;3.73;;
15130;SDS011;7666;50.920;4.628;2022-08-20T03:05:16;12.93;;;3.80;;
15130;SDS011;7666;50.920;4.628;2022-08-20T03:08:02;9.27;;;3.73;;
15130;SDS011;7666;50.920;4.628;2022-08-20T03:10:49;12.37;;;3.57;;
15130;SDS011;7666;50.920;4.628;2022-08-20T03:13:36;12.57;;;3.90;;
15130;SDS011;7666;50.920;4.628;2022-08-20T03:16:22;11.60;;;3.70;;
15130;SDS011;7666;50.920;4.628;2022-08-20T03:19:08;16.50;;;4.20;;
15130;SDS011;7666;50.920;4.628;2022-08-20T03:21:54;10.73;;;3.57;;
15130;SDS011;7666;50.920;4.628;2022-08-20T03:24:40;10.30;;;3.73;;
15130;SDS011;7666;50.920;4.628;2022-08-20T03:27:26;9.53;;;4.07;;
15130;SDS011;7666;50.920;4.628;2022-08-20T03:30:13;12.57;;;4.27;;
15130;SDS011;7666;50.920;4.628;2022-08-20T03:33:01;9.50;;;3.77;;
15130;SDS011;7666;50.920;4.628;2022-08-20T03:35:47;12.83;;;4.60;;
15130;SDS011;7666;50.920;4.628;2022-08-20T03:38:33;20.03;;;6.17;;
15130;SDS011;7666;50.920;4.628;2022-08-20T03:41:19;13.67;;;4.67;;
15130;SDS011;7666;50.920;4.628;2022-08-20T03:44:05;17.47;;;5.20;;
15130;SDS011;7666;50.920;4.628;2022-08-20T03:46:51;12.67;;;4.30;;
15130;SDS011;7666;50.920;4.628;2022-08-20T03:49:37;12.63;;;4.80;;
15130;SDS011;7666;50.920;4.628;2022-08-20T03:52:23;15.10;;;5.00;;
15130;SDS011;7666;50.920;4.628;2022-08-20T03:55:09;17.13;;;4.83;;
15130;SDS011;7666;50.920;4.628;2022-08-20T03:57:58;14.70;;;4.77;;
15130;SDS011;7666;50.920;4.628;2022-08-20T04:00:47;12.27;;;4.47;;
15130;SDS011;7666;50.920;4.628;2022-08-20T04:03:36;12.10;;;4.90;;
15130;SDS011;7666;50.920;4.628;2022-08-20T04:06:22;14.17;;;4.60;;
15130;SDS011;7666;50.920;4.628;2022-08-20T04:09:08;12.13;;;4.83;;
15130;SDS011;7666;50.920;4.628;2022-08-20T04:11:54;11.33;;;4.77;;
15130;SDS011;7666;50.920;4.628;2022-08-20T04:14:45;17.70;;;5.07;;
15130;SDS011;7666;50.920;4.628;2022-08-20T04:17:31;14.33;;;5.03;;
15130;SDS011;7666;50.920;4.628;2022-08-20T04:20:19;15.67;;;5.07;;
15130;SDS011;7666;50.920;4.628;2022-08-20T04:23:08;9.47;;;4.57;;
15130;SDS011;7666;50.920;4.628;2022-08-20T04:25:54;14.27;;;4.83;;
15130;SDS011;7666;50.920;4.628;2022-08-20T04:28:40;9.77;;;4.10;;
15130;SDS011;7666;50.920;4.628;2022-08-20T04:31:26;16.23;;;5.03;;
15130;SDS011;7666;50.920;4.628;2022-08-20T04:34:18;12.00;;;4.60;;
15130;SDS011;7666;50.920;4.628;2022-08-20T04:37:04;11.93;;;4.67;;
15130;SDS011;7666;50.920;4.628;2022-08-20T04:39:50;14.90;;;4.83;;
15130;SDS011;7666;50.920;4.628;2022-08-20T04:42:55;14.50;;;5.10;;
15130;SDS011;7666;50.920;4.628;2022-08-20T04:45:41;12.50;;;4.93;;
15130;SDS011;7666;50.920;4.628;2022-08-20T04:48:28;11.07;;;4.53;;
15130;SDS011;7666;50.920;4.628;2022-08-20T04:51:14;14.80;;;4.87;;
15130;SDS011;7666;50.920;4.628;2022-08-20T04:54:00;11.13;;;4.90;;
15130;SDS011;7666;50.920;4.628;2022-08-20T04:56:47;10.83;;;4.73;;
15130;SDS011;7666;50.920;4.628;2022-08-20T04:59:33;13.53;;;5.40;;
15130;SDS011;7666;50.920;4.628;2022-08-20T05:02:20;12.50;;;5.20;;
15130;SDS011;7666;50.920;4.628;2022-08-20T05:05:06;12.03;;;5.77;;
15130;SDS011;7666;50.920;4.628;2022-08-20T05:07:53;11.77;;;5.50;;
15130;SDS011;7666;50.920;4.628;2022-08-20T05:10:40;17.80;;;6.27;;
15130;SDS011;7666;50.920;4.628;2022-08-20T05:13:26;16.27;;;5.63;;
15130;SDS011;7666;50.920;4.628;2022-08-20T05:16:13;15.80;;;5.97;;
15130;SDS011;7666;50.920;4.628;2022-08-20T05:19:00;14.33;;;5.73;;
15130;SDS011;7666;50.920;4.628;2022-08-20T05:21:46;14.03;;;5.50;;
15130;SDS011;7666;50.920;4.628;2022-08-20T05:24:33;15.10;;;6.03;;
15130;SDS011;7666;50.920;4.628;2022-08-20T05:27:19;15.33;;;6.27;;
15130;SDS011;7666;50.920;4.628;2022-08-20T05:30:06;15.23;;;5.47;;
15130;SDS011;7666;50.920;4.628;2022-08-20T05:32:54;16.00;;;5.93;;
15130;SDS011;7666;50.920;4.628;2022-08-20T05:35:40;12.53;;;5.20;;
15130;SDS011;7666;50.920;4.628;2022-08-20T05:38:27;15.80;;;5.40;;
15130;SDS011;7666;50.920;4.628;2022-08-20T05:41:13;15.87;;;5.40;;
15130;SDS011;7666;50.920;4.628;2022-08-20T05:44:00;14.63;;;5.17;;
15130;SDS011;7666;50.920;4.628;2022-08-20T05:46:46;14.83;;;5.77;;
15130;SDS011;7666;50.920;4.628;2022-08-20T05:49:32;15.50;;;6.00;;
15130;SDS011;7666;50.920;4.628;2022-08-20T05:52:18;12.37;;;5.03;;
15130;SDS011;7666;50.920;4.628;2022-08-20T05:55:05;13.33;;;5.83;;
15130;SDS011;7666;50.920;4.628;2022-08-20T05:57:59;10.87;;;5.23;;
15130;SDS011;7666;50.920;4.628;2022-08-20T06:00:47;15.47;;;5.93;;
15130;SDS011;7666;50.920;4.628;2022-08-20T06:03:34;12.07;;;5.47;;
15130;SDS011;7666;50.920;4.628;2022-08-20T06:06:38;17.73;;;6.07;;
15130;SDS011;7666;50.920;4.628;2022-08-20T06:09:24;17.70;;;6.27;;
15130;SDS011;7666;50.920;4.628;2022-08-20T06:12:11;14.27;;;5.70;;
15130;SDS011;7666;50.920;4.628;2022-08-20T06:14:57;14.10;;;5.60;;
15130;SDS011;7666;50.920;4.628;2022-08-20T06:17:43;18.27;;;6.33;;
15130;SDS011;7666;50.920;4.628;2022-08-20T06:20:29;14.20;;;5.87;;
15130;SDS011;7666;50.920;4.628;2022-08-20T06:23:16;12.17;;;5.53;;
15130;SDS011;7666;50.920;4.628;2022-08-20T06:26:02;15.70;;;5.80;;
15130;SDS011;7666;50.920;4.628;2022-08-20T06:28:50;13.07;;;6.00;;
15130;SDS011;7666;50.920;4.628;2022-08-20T06:31:36;16.13;;;6.67;;
15130;SDS011;7666;50.920;4.628;2022-08-20T06:34:24;14.93;;;5.87;;
15130;SDS011;7666;50.920;4.628;2022-08-20T06:37:17;13.30;;;5.47;;
15130;SDS011;7666;50.920;4.628;2022-08-20T06:42:56;16.07;;;6.27;;
15130;SDS011;7666;50.920;4.628;2022-08-20T06:45:42;18.17;;;6.10;;
15130;SDS011;7666;50.920;4.628;2022-08-20T06:48:28;14.30;;;6.43;;
15130;SDS011;7666;50.920;4.628;2022-08-20T06:51:14;16.80;;;6.37;;
15130;SDS011;7666;50.920;4.628;2022-08-20T06:54:00;14.37;;;5.37;;
15130;SDS011;7666;50.920;4.628;2022-08-20T06:56:46;15.23;;;6.27;;
15130;SDS011;7666;50.920;4.628;2022-08-20T06:59:33;16.90;;;6.67;;
15130;SDS011;7666;50.920;4.628;2022-08-20T07:02:19;17.70;;;6.20;;
15130;SDS011;7666;50.920;4.628;2022-08-20T07:05:05;15.27;;;6.27;;
15130;SDS011;7666;50.920;4.628;2022-08-20T07:07:52;16.63;;;6.27;;
15130;SDS011;7666;50.920;4.628;2022-08-20T07:10:39;13.10;;;6.10;;
15130;SDS011;7666;50.920;4.628;2022-08-20T07:13:27;13.83;;;6.03;;
15130;SDS011;7666;50.920;4.628;2022-08-20T07:16:14;15.40;;;6.10;;
15130;SDS011;7666;50.920;4.628;2022-08-20T07:19:00;17.80;;;7.00;;
15130;SDS011;7666;50.920;4.628;2022-08-20T07:21:46;18.20;;;7.43;;
15130;SDS011;7666;50.920;4.628;2022-08-20T07:24:32;17.57;;;7.97;;
15130;SDS011;7666;50.920;4.628;2022-08-20T07:27:19;18.70;;;8.67;;
15130;SDS011;7666;50.920;4.628;2022-08-20T07:30:07;18.97;;;8.10;;
15130;SDS011;7666;50.920;4.628;2022-08-20T07:33:15;18.77;;;8.50;;
15130;SDS011;7666;50.920;4.628;2022-08-20T07:36:01;17.30;;;9.93;;
15130;SDS011;7666;50.920;4.628;2022-08-20T07:38:50;23.17;;;9.53;;
15130;SDS011;7666;50.920;4.628;2022-08-20T07:41:36;20.33;;;9.67;;
15130;SDS011;7666;50.920;4.628;2022-08-20T07:44:22;27.70;;;13.07;;
15130;SDS011;7666;50.920;4.628;2022-08-20T07:47:08;29.80;;;14.40;;
15130;SDS011;7666;50.920;4.628;2022-08-20T07:49:54;24.37;;;13.13;;
15130;SDS011;7666;50.920;4.628;2022-08-20T07:52:40;26.23;;;12.60;;
15130;SDS011;7666;50.920;4.628;2022-08-20T07:55:26;24.20;;;12.57;;
15130;SDS011;7666;50.920;4.628;2022-08-20T07:58:13;27.03;;;15.07;;
15130;SDS011;7666;50.920;4.628;2022-08-20T08:01:02;26.53;;;13.63;;
15130;SDS011;7666;50.920;4.628;2022-08-20T08:03:50;24.40;;;12.50;;
15130;SDS011;7666;50.920;4.628;2022-08-20T08:06:36;23.90;;;12.73;;
15130;SDS011;7666;50.920;4.628;2022-08-20T08:09:22;19.17;;;10.27;;
15130;SDS011;7666;50.920;4.628;2022-08-20T08:12:08;26.73;;;11.10;;
15130;SDS011;7666;50.920;4.628;2022-08-20T08:14:57;22.50;;;14.17;;
15130;SDS011;7666;50.920;4.628;2022-08-20T08:17:44;20.83;;;14.63;;
15130;SDS011;7666;50.920;4.628;2022-08-20T08:20:36;24.27;;;14.60;;
15130;SDS011;7666;50.920;4.628;2022-08-20T08:23:26;22.57;;;12.30;;
15130;SDS011;7666;50.920;4.628;2022-08-20T08:26:13;22.27;;;12.40;;
15130;SDS011;7666;50.920;4.628;2022-08-20T08:29:00;17.57;;;10.57;;
15130;SDS011;7666;50.920;4.628;2022-08-20T08:31:46;17.07;;;10.77;;
15130;SDS011;7666;50.920;4.628;2022-08-20T08:34:33;18.43;;;10.97;;
15130;SDS011;7666;50.920;4.628;2022-08-20T08:37:20;18.37;;;9.90;;
15130;SDS011;7666;50.920;4.628;2022-08-20T08:40:06;14.67;;;9.07;;
15130;SDS011;7666;50.920;4.628;2022-08-20T08:42:53;12.37;;;8.73;;
15130;SDS011;7666;50.920;4.628;2022-08-20T08:45:43;15.47;;;7.67;;
15130;SDS011;7666;50.920;4.628;2022-08-20T08:48:39;14.80;;;6.93;;
15130;SDS011;7666;50.920;4.628;2022-08-20T08:51:46;12.70;;;5.43;;
15130;SDS011;7666;50.920;4.628;2022-08-20T08:54:42;14.23;;;6.63;;
15130;SDS011;7666;50.920;4.628;2022-08-20T08:57:33;11.50;;;4.97;;
15130;SDS011;7666;50.920;4.628;2022-08-20T09:00:19;13.17;;;5.73;;
15130;SDS011;7666;50.920;4.628;2022-08-20T09:03:07;10.43;;;5.43;;
15130;SDS011;7666;50.920;4.628;2022-08-20T09:05:57;11.73;;;5.33;;
15130;SDS011;7666;50.920;4.628;2022-08-20T09:08:46;11.63;;;4.47;;
15130;SDS011;7666;50.920;4.628;2022-08-20T09:11:44;9.97;;;4.43;;
15130;SDS011;7666;50.920;4.628;2022-08-20T09:14:33;8.37;;;3.67;;
15130;SDS011;7666;50.920;4.628;2022-08-20T09:17:20;10.93;;;3.20;;
15130;SDS011;7666;50.920;4.628;2022-08-20T09:20:07;10.77;;;3.20;;
15130;SDS011;7666;50.920;4.628;2022-08-20T09:22:54;7.90;;;3.10;;
15130;SDS011;7666;50.920;4.628;2022-08-20T09:25:40;9.43;;;2.87;;
15130;SDS011;7666;50.920;4.628;2022-08-20T09:28:27;11.37;;;3.30;;
15130;SDS011;7666;50.920;4.628;2022-08-20T09:31:13;8.57;;;2.90;;
15130;SDS011;7666;50.920;4.628;2022-08-20T09:33:59;6.17;;;3.37;;
15130;SDS011;7666;50.920;4.628;2022-08-20T09:36:45;10.97;;;3.30;;
15130;SDS011;7666;50.920;4.628;2022-08-20T09:39:31;8.37;;;2.70;;
15130;SDS011;7666;50.920;4.628;2022-08-20T09:42:21;5.73;;;2.50;;
15130;SDS011;7666;50.920;4.628;2022-08-20T09:45:12;6.07;;;2.50;;
15130;SDS011;7666;50.920;4.628;2022-08-20T09:47:59;8.97;;;2.63;;
15130;SDS011;7666;50.920;4.628;2022-08-20T09:50:46;5.70;;;2.00;;
15130;SDS011;7666;50.920;4.628;2022-08-20T09:53:33;7.73;;;2.50;;
15130;SDS011;7666;50.920;4.628;2022-08-20T09:56:19;9.00;;;2.60;;
15130;SDS011;7666;50.920;4.628;2022-08-20T09:59:05;9.10;;;2.50;;
15130;SDS011;7666;50.920;4.628;2022-08-20T10:01:51;8.37;;;2.37;;
15130;SDS011;7666;50.920;4.628;2022-08-20T10:04:37;8.83;;;2.40;;
15130;SDS011;7666;50.920;4.628;2022-08-20T10:07:23;8.50;;;2.50;;
15130;SDS011;7666;50.920;4.628;2022-08-20T10:10:10;8.17;;;2.60;;
15130;SDS011;7666;50.920;4.628;2022-08-20T10:12:58;9.77;;;2.30;;
15130;SDS011;7666;50.920;4.628;2022-08-20T10:15:44;6.73;;;1.90;;
15130;SDS011;7666;50.920;4.628;2022-08-20T10:18:30;5.60;;;1.97;;
15130;SDS011;7666;50.920;4.628;2022-08-20T10:21:16;5.07;;;2.17;;
15130;SDS011;7666;50.920;4.628;2022-08-20T10:24:02;8.67;;;2.10;;
15130;SDS011;7666;50.920;4.628;2022-08-20T10:26:48;10.00;;;2.57;;
15130;SDS011;7666;50.920;4.628;2022-08-20T10:29:34;9.23;;;2.20;;
15130;SDS011;7666;50.920;4.628;2022-08-20T10:32:20;7.67;;;2.20;;
15130;SDS011;7666;50.920;4.628;2022-08-20T10:35:06;12.07;;;2.50;;
15130;SDS011;7666;50.920;4.628;2022-08-20T10:37:53;6.13;;;2.43;;
15130;SDS011;7666;50.920;4.628;2022-08-20T10:40:39;8.40;;;2.30;;
15130;SDS011;7666;50.920;4.628;2022-08-20T10:43:25;9.30;;;2.60;;
15130;SDS011;7666;50.920;4.628;2022-08-20T10:46:12;6.23;;;2.03;;
15130;SDS011;7666;50.920;4.628;2022-08-20T10:48:58;7.87;;;2.57;;
15130;SDS011;7666;50.920;4.628;2022-08-20T10:51:44;7.70;;;2.10;;
15130;SDS011;7666;50.920;4.628;2022-08-20T10:54:30;11.50;;;2.50;;
15130;SDS011;7666;50.920;4.628;2022-08-20T10:57:18;7.67;;;2.13;;
15130;SDS011;7666;50.920;4.628;2022-08-20T11:00:06;7.17;;;2.43;;
15130;SDS011;7666;50.920;4.628;2022-08-20T11:02:54;9.13;;;2.20;;
15130;SDS011;7666;50.920;4.628;2022-08-20T11:05:40;12.40;;;2.43;;
15130;SDS011;7666;50.920;4.628;2022-08-20T11:08:26;5.90;;;1.83;;
15130;SDS011;7666;50.920;4.628;2022-08-20T11:11:12;5.93;;;2.07;;
15130;SDS011;7666;50.920;4.628;2022-08-20T11:13:58;7.03;;;2.33;;
15130;SDS011;7666;50.920;4.628;2022-08-20T11:16:44;7.87;;;2.43;;
15130;SDS011;7666;50.920;4.628;2022-08-20T11:19:30;10.65;;;2.63;;
15130;SDS011;7666;50.920;4.628;2022-08-20T11:22:16;9.23;;;2.73;;
15130;SDS011;7666;50.920;4.628;2022-08-20T11:25:03;6.07;;;1.97;;
15130;SDS011;7666;50.920;4.628;2022-08-20T11:27:51;11.03;;;2.77;;
15130;SDS011;7666;50.920;4.628;2022-08-20T11:30:38;7.87;;;2.50;;
15130;SDS011;7666;50.920;4.628;2022-08-20T11:33:24;11.03;;;2.50;;
15130;SDS011;7666;50.920;4.628;2022-08-20T11:36:10;8.20;;;2.60;;
15130;SDS011;7666;50.920;4.628;2022-08-20T11:38:56;5.77;;;2.30;;
15130;SDS011;7666;50.920;4.628;2022-08-20T11:41:42;9.23;;;2.37;;
15130;SDS011;7666;50.920;4.628;2022-08-20T11:44:28;11.10;;;2.90;;
15130;SDS011;7666;50.920;4.628;2022-08-20T11:47:19;10.27;;;2.40;;
15130;SDS011;7666;50.920;4.628;2022-08-20T11:50:13;6.97;;;2.40;;
15130;SDS011;7666;50.920;4.628;2022-08-20T11:53:01;10.53;;;2.60;;
15130;SDS011;7666;50.920;4.628;2022-08-20T11:55:47;7.03;;;2.60;;
15130;SDS011;7666;50.920;4.628;2022-08-20T11:58:33;7.50;;;2.30;;
15130;SDS011;7666;50.920;4.628;2022-08-20T12:01:19;5.67;;;2.07;;
15130;SDS011;7666;50.920;4.628;2022-08-20T12:04:05;7.43;;;2.37;;
15130;SDS011;7666;50.920;4.628;2022-08-20T12:06:51;7.63;;;2.43;;
15130;SDS011;7666;50.920;4.628;2022-08-20T12:09:37;8.73;;;2.40;;
15130;SDS011;7666;50.920;4.628;2022-08-20T12:12:23;6.93;;;1.80;;
15130;SDS011;7666;50.920;4.628;2022-08-20T12:15:09;7.50;;;2.43;;
15130;SDS011;7666;50.920;4.628;2022-08-20T12:17:55;8.73;;;2.37;;
15130;SDS011;7666;50.920;4.628;2022-08-20T12:20:42;6.50;;;2.30;;
15130;SDS011;7666;50.920;4.628;2022-08-20T12:23:28;6.10;;;2.40;;
15130;SDS011;7666;50.920;4.628;2022-08-20T12:26:14;5.90;;;2.30;;
15130;SDS011;7666;50.920;4.628;2022-08-20T12:29:01;7.68;;;2.50;;
15130;SDS011;7666;50.920;4.628;2022-08-20T12:31:46;8.48;;;2.40;;
15130;SDS011;7666;50.920;4.628;2022-08-20T12:34:33;5.05;;;1.77;;
15130;SDS011;7666;50.920;4.628;2022-08-20T12:37:21;8.23;;;2.17;;
15130;SDS011;7666;50.920;4.628;2022-08-20T12:40:11;7.53;;;2.20;;
15130;SDS011;7666;50.920;4.628;2022-08-20T12:43:00;5.43;;;1.98;;
15130;SDS011;7666;50.920;4.628;2022-08-20T12:45:47;6.97;;;2.08;;
15130;SDS011;7666;50.920;4.628;2022-08-20T12:48:33;5.40;;;2.10;;
15130;SDS011;7666;50.920;4.628;2022-08-20T12:51:19;6.20;;;2.35;;
15130;SDS011;7666;50.920;4.628;2022-08-20T12:54:05;5.60;;;2.00;;
15130;SDS011;7666;50.920;4.628;2022-08-20T12:56:50;9.02;;;2.38;;
15130;SDS011;7666;50.920;4.628;2022-08-20T12:59:36;8.13;;;2.13;;
15130;SDS011;7666;50.920;4.628;2022-08-20T13:02:22;7.72;;;2.20;;
15130;SDS011;7666;50.920;4.628;2022-08-20T13:05:09;7.10;;;1.92;;
15130;SDS011;7666;50.920;4.628;2022-08-20T13:07:57;4.93;;;2.03;;
15130;SDS011;7666;50.920;4.628;2022-08-20T13:10:43;5.35;;;1.88;;
15130;SDS011;7666;50.920;4.628;2022-08-20T13:13:30;4.38;;;1.70;;
15130;SDS011;7666;50.920;4.628;2022-08-20T13:16:16;4.95;;;2.10;;
15130;SDS011;7666;50.920;4.628;2022-08-20T13:19:02;5.53;;;1.90;;
15130;SDS011;7666;50.920;4.628;2022-08-20T13:21:48;5.88;;;1.70;;
15130;SDS011;7666;50.920;4.628;2022-08-20T13:24:34;5.70;;;1.95;;
15130;SDS011;7666;50.920;4.628;2022-08-20T13:27:20;6.53;;;1.95;;
15130;SDS011;7666;50.920;4.628;2022-08-20T13:30:07;6.05;;;1.67;;
15130;SDS011;7666;50.920;4.628;2022-08-20T13:32:55;8.10;;;2.05;;
15130;SDS011;7666;50.920;4.628;2022-08-20T13:35:41;6.63;;;1.80;;
15130;SDS011;7666;50.920;4.628;2022-08-20T13:38:27;4.63;;;1.77;;
15130;SDS011;7666;50.920;4.628;2022-08-20T13:41:13;6.63;;;1.83;;
15130;SDS011;7666;50.920;4.628;2022-08-20T13:43:59;5.97;;;2.00;;
15130;SDS011;7666;50.920;4.628;2022-08-20T13:46:45;5.07;;;1.50;;
15130;SDS011;7666;50.920;4.628;2022-08-20T13:49:32;6.65;;;1.67;;
15130;SDS011;7666;50.920;4.628;2022-08-20T13:52:18;6.07;;;1.48;;
15130;SDS011;7666;50.920;4.628;2022-08-20T13:55:04;5.90;;;1.83;;
15130;SDS011;7666;50.920;4.628;2022-08-20T13:57:52;5.27;;;1.57;;
15130;SDS011;7666;50.920;4.628;2022-08-20T14:00:39;4.72;;;1.65;;
15130;SDS011;7666;50.920;4.628;2022-08-20T14:03:25;3.35;;;1.50;;
15130;SDS011;7666;50.920;4.628;2022-08-20T14:06:11;5.88;;;1.77;;
15130;SDS011;7666;50.920;4.628;2022-08-20T14:08:57;5.28;;;1.83;;
15130;SDS011;7666;50.920;4.628;2022-08-20T14:11:43;4.70;;;1.60;;
15130;SDS011;7666;50.920;4.628;2022-08-20T14:14:29;6.68;;;1.83;;
15130;SDS011;7666;50.920;4.628;2022-08-20T14:20:13;4.68;;;1.63;;
15130;SDS011;7666;50.920;4.628;2022-08-20T14:23:01;5.63;;;1.65;;
15130;SDS011;7666;50.920;4.628;2022-08-20T14:25:48;4.35;;;1.60;;
15130;SDS011;7666;50.920;4.628;2022-08-20T14:28:34;6.15;;;1.77;;
15130;SDS011;7666;50.920;4.628;2022-08-20T14:31:20;4.53;;;1.55;;
15130;SDS011;7666;50.920;4.628;2022-08-20T14:34:06;7.80;;;2.00;;
15130;SDS011;7666;50.920;4.628;2022-08-20T14:36:52;4.17;;;1.67;;
15130;SDS011;7666;50.920;4.628;2022-08-20T14:39:38;5.10;;;1.80;;
15130;SDS011;7666;50.920;4.628;2022-08-20T14:42:25;7.77;;;1.90;;
15130;SDS011;7666;50.920;4.628;2022-08-20T14:45:12;4.00;;;2.00;;
15130;SDS011;7666;50.920;4.628;2022-08-20T14:47:58;4.80;;;1.60;;
15130;SDS011;7666;50.920;4.628;2022-08-20T14:50:44;6.00;;;1.63;;
15130;SDS011;7666;50.920;4.628;2022-08-20T14:53:30;4.67;;;1.63;;
15130;SDS011;7666;50.920;4.628;2022-08-20T14:56:16;7.00;;;1.70;;
15130;SDS011;7666;50.920;4.628;2022-08-20T14:59:02;5.03;;;2.00;;
15130;SDS011;7666;50.920;4.628;2022-08-20T15:01:48;3.63;;;1.53;;
15130;SDS011;7666;50.920;4.628;2022-08-20T15:04:35;8.43;;;2.27;;
15130;SDS011;7666;50.920;4.628;2022-08-20T15:07:29;5.13;;;1.73;;
15130;SDS011;7666;50.920;4.628;2022-08-20T15:10:20;4.07;;;1.57;;
15130;SDS011;7666;50.920;4.628;2022-08-20T15:13:08;3.53;;;1.80;;
15130;SDS011;7666;50.920;4.628;2022-08-20T15:15:54;4.83;;;1.77;;
15130;SDS011;7666;50.920;4.628;2022-08-20T15:18:40;3.53;;;1.70;;
15130;SDS011;7666;50.920;4.628;2022-08-20T15:21:27;4.77;;;1.67;;
15130;SDS011;7666;50.920;4.628;2022-08-20T15:24:14;6.00;;;1.67;;
15130;SDS011;7666;50.920;4.628;2022-08-20T15:27:20;4.53;;;1.67;;
15130;SDS011;7666;50.920;4.628;2022-08-20T15:30:09;4.47;;;1.60;;
15130;SDS011;7666;50.920;4.628;2022-08-20T15:32:57;5.53;;;1.73;;
15130;SDS011;7666;50.920;4.628;2022-08-20T15:35:43;4.93;;;1.70;;
15130;SDS011;7666;50.920;4.628;2022-08-20T15:38:29;5.03;;;1.33;;
15130;SDS011;7666;50.920;4.628;2022-08-20T15:41:17;5.07;;;1.67;;
15130;SDS011;7666;50.920;4.628;2022-08-20T15:44:03;6.90;;;1.80;;
15130;SDS011;7666;50.920;4.628;2022-08-20T15:46:49;5.87;;;1.50;;
15130;SDS011;7666;50.920;4.628;2022-08-20T15:49:35;3.63;;;1.37;;
15130;SDS011;7666;50.920;4.628;2022-08-20T15:52:22;4.03;;;1.37;;
15130;SDS011;7666;50.920;4.628;2022-08-20T15:55:11;4.87;;;1.60;;
15130;SDS011;7666;50.920;4.628;2022-08-20T16:01:04;5.70;;;1.80;;
15130;SDS011;7666;50.920;4.628;2022-08-20T16:04:02;4.70;;;1.77;;
15130;SDS011;7666;50.920;4.628;2022-08-20T16:07:13;4.07;;;1.50;;
15130;SDS011;7666;50.920;4.628;2022-08-20T16:10:16;4.00;;;1.63;;
15130;SDS011;7666;50.920;4.628;2022-08-20T16:13:11;3.83;;;1.53;;
15130;SDS011;7666;50.920;4.628;2022-08-20T16:16:21;5.80;;;1.40;;
15130;SDS011;7666;50.920;4.628;2022-08-20T16:19:26;4.40;;;1.53;;
15130;SDS011;7666;50.920;4.628;2022-08-20T16:22:16;6.33;;;1.63;;
15130;SDS011;7666;50.920;4.628;2022-08-20T16:25:04;4.73;;;1.63;;
15130;SDS011;7666;50.920;4.628;2022-08-20T16:28:11;5.27;;;1.80;;
15130;SDS011;7666;50.920;4.628;2022-08-20T16:31:04;4.93;;;1.60;;
15130;SDS011;7666;50.920;4.628;2022-08-20T16:42:58;5.57;;;1.63;;
15130;SDS011;7666;50.920;4.628;2022-08-20T16:45:53;7.23;;;1.70;;
15130;SDS011;7666;50.920;4.628;2022-08-20T16:48:53;4.43;;;1.70;;
15130;SDS011;7666;50.920;4.628;2022-08-20T16:51:45;3.33;;;1.70;;
15130;SDS011;7666;50.920;4.628;2022-08-20T16:54:36;5.17;;;1.83;;
15130;SDS011;7666;50.920;4.628;2022-08-20T16:57:26;4.43;;;1.57;;
15130;SDS011;7666;50.920;4.628;2022-08-20T17:03:28;3.67;;;1.80;;
15130;SDS011;7666;50.920;4.628;2022-08-20T17:06:18;4.10;;;1.77;;
15130;SDS011;7666;50.920;4.628;2022-08-20T17:09:39;6.83;;;1.70;;
15130;SDS011;7666;50.920;4.628;2022-08-20T17:12:29;6.23;;;1.60;;
15130;SDS011;7666;50.920;4.628;2022-08-20T17:15:23;4.13;;;1.40;;
15130;SDS011;7666;50.920;4.628;2022-08-20T17:18:36;4.03;;;1.50;;
15130;SDS011;7666;50.920;4.628;2022-08-20T17:27:10;5.63;;;1.80;;
15130;SDS011;7666;50.920;4.628;2022-08-20T17:30:36;5.00;;;1.77;;
15130;SDS011;7666;50.920;4.628;2022-08-20T17:33:26;4.60;;;1.87;;
15130;SDS011;7666;50.920;4.628;2022-08-20T17:36:20;4.07;;;1.67;;